sensor_id;sensor_type;location;lat;lon;timestamp;pressure;altitude;pressure_sealevel;temperature;humidity
82562;BME280;72228;51.208;10.468;2023-11-21T00:01:54;98477.38;;;3.95;96.79
82562;BME280;72228;51.208;10.468;2023-11-21T00:04:20;98474.91;;;3.94;97.36
82562;BME280;72228;51.208;10.468;2023-11-21T00:06:47;98476.03;;;3.88;96.82
82562;BME280;72228;51.208;10.468;2023-11-21T00:09:14;98481.63;;;3.78;97.07
82562;BME280;72228;51.208;10.468;2023-11-21T00:11:45;98484.56;;;3.86;96.88
82562;BME280;72228;51.208;10.468;2023-11-21T00:14:11;98480.25;;;3.75;97.28
82562;BME280;72228;51.208;10.468;2023-11-21T00:16:37;98478.25;;;3.86;97.03
82562;BME280;72228;51.208;10.468;2023-11-21T00:19:03;98477.75;;;3.79;96.96
82562;BME280;72228;51.208;10.468;2023-11-21T00:21:29;98485.53;;;3.66;97.19
82562;BME280;72228;51.208;10.468;2023-11-21T00:23:54;98489.72;;;3.54;97.29
82562;BME280;72228;51.208;10.468;2023-11-21T00:26:20;98485.13;;;3.39;97.17
82562;BME280;72228;51.208;10.468;2023-11-21T00:28:56;98487.59;;;3.40;96.98
82562;BME280;72228;51.208;10.468;2023-11-21T00:31:21;98485.53;;;3.66;97.64
82562;BME280;72228;51.208;10.468;2023-11-21T00:33:47;98487.75;;;3.64;97.14
82562;BME280;72228;51.208;10.468;2023-11-21T00:36:13;98498.75;;;3.54;97.50
82562;BME280;72228;51.208;10.468;2023-11-21T00:38:39;98489.22;;;3.46;97.57
82562;BME280;72228;51.208;10.468;2023-11-21T00:41:06;98486.22;;;3.38;97.40
82562;BME280;72228;51.208;10.468;2023-11-21T00:43:31;98486.84;;;3.30;97.52
82562;BME280;72228;51.208;10.468;2023-11-21T00:46:04;98490.41;;;3.25;97.64
82562;BME280;72228;51.208;10.468;2023-11-21T00:48:30;98496.72;;;3.26;97.46
82562;BME280;72228;51.208;10.468;2023-11-21T00:50:56;98509.91;;;3.13;97.60
82562;BME280;72228;51.208;10.468;2023-11-21T00:53:21;98508.31;;;3.02;97.46
82562;BME280;72228;51.208;10.468;2023-11-21T00:55:47;98501.78;;;2.93;97.69
82562;BME280;72228;51.208;10.468;2023-11-21T00:58:13;98506.88;;;3.15;97.90
82562;BME280;72228;51.208;10.468;2023-11-21T01:00:39;98508.78;;;3.19;97.90
82562;BME280;72228;51.208;10.468;2023-11-21T01:03:05;98515.16;;;3.10;97.69
82562;BME280;72228;51.208;10.468;2023-11-21T01:05:33;98525.25;;;3.09;97.58
82562;BME280;72228;51.208;10.468;2023-11-21T01:08:00;98520.38;;;3.01;97.89
82562;BME280;72228;51.208;10.468;2023-11-21T01:10:26;98528.06;;;2.99;97.94
82562;BME280;72228;51.208;10.468;2023-11-21T01:12:54;98517.09;;;2.99;98.24
82562;BME280;72228;51.208;10.468;2023-11-21T01:15:21;98523.97;;;2.91;98.16
82562;BME280;72228;51.208;10.468;2023-11-21T01:17:47;98533.25;;;2.90;97.59
82562;BME280;72228;51.208;10.468;2023-11-21T01:20:13;98536.81;;;2.91;97.70
82562;BME280;72228;51.208;10.468;2023-11-21T01:22:39;98530.28;;;2.87;97.47
82562;BME280;72228;51.208;10.468;2023-11-21T01:25:05;98528.38;;;2.77;97.79
82562;BME280;72228;51.208;10.468;2023-11-21T01:27:36;98538.50;;;2.72;98.17
82562;BME280;72228;51.208;10.468;2023-11-21T01:30:03;98533.91;;;2.57;97.76
82562;BME280;72228;51.208;10.468;2023-11-21T01:32:29;98539.09;;;2.63;97.80
82562;BME280;72228;51.208;10.468;2023-11-21T01:34:55;98541.53;;;2.55;97.94
82562;BME280;72228;51.208;10.468;2023-11-21T01:37:21;98548.94;;;2.59;97.57
82562;BME280;72228;51.208;10.468;2023-11-21T01:39:48;98546.19;;;2.54;97.80
82562;BME280;72228;51.208;10.468;2023-11-21T01:42:14;98542.38;;;2.50;98.00
82562;BME280;72228;51.208;10.468;2023-11-21T01:44:40;98539.66;;;2.50;97.67
82562;BME280;72228;51.208;10.468;2023-11-21T01:47:06;98538.03;;;2.49;97.36
82562;BME280;72228;51.208;10.468;2023-11-21T01:49:33;98545.13;;;2.40;97.97
82562;BME280;72228;51.208;10.468;2023-11-21T01:52:01;98547.31;;;2.38;98.01
82562;BME280;72228;51.208;10.468;2023-11-21T01:54:28;98548.41;;;2.52;97.93
82562;BME280;72228;51.208;10.468;2023-11-21T01:56:58;98547.88;;;2.45;97.91
82562;BME280;72228;51.208;10.468;2023-11-21T01:59:36;98549.25;;;2.32;98.05
82562;BME280;72228;51.208;10.468;2023-11-21T02:02:04;98544.03;;;2.26;97.92
82562;BME280;72228;51.208;10.468;2023-11-21T02:04:35;98547.88;;;2.14;98.34
82562;BME280;72228;51.208;10.468;2023-11-21T02:07:03;98553.06;;;2.11;98.36
82562;BME280;72228;51.208;10.468;2023-11-21T02:09:33;98556.63;;;2.01;97.63
82562;BME280;72228;51.208;10.468;2023-11-21T02:12:00;98557.94;;;1.94;97.77
82562;BME280;72228;51.208;10.468;2023-11-21T02:14:27;98550.28;;;1.85;98.13
82562;BME280;72228;51.208;10.468;2023-11-21T02:16:54;98550.84;;;1.87;97.86
82562;BME280;72228;51.208;10.468;2023-11-21T02:19:23;98551.13;;;1.86;98.20
82562;BME280;72228;51.208;10.468;2023-11-21T02:21:52;98554.66;;;1.76;98.23
82562;BME280;72228;51.208;10.468;2023-11-21T02:24:22;98560.94;;;1.72;98.15
82562;BME280;72228;51.208;10.468;2023-11-21T02:26:49;98562.00;;;1.60;98.02
82562;BME280;72228;51.208;10.468;2023-11-21T02:29:18;98559.53;;;1.54;98.04
82562;BME280;72228;51.208;10.468;2023-11-21T02:31:52;98564.66;;;1.45;98.11
82562;BME280;72228;51.208;10.468;2023-11-21T02:34:21;98568.22;;;1.41;98.21
82562;BME280;72228;51.208;10.468;2023-11-21T02:36:48;98569.94;;;1.67;98.37
82562;BME280;72228;51.208;10.468;2023-11-21T02:39:15;98577.34;;;1.72;98.29
82562;BME280;72228;51.208;10.468;2023-11-21T02:41:43;98572.41;;;1.79;98.27
82562;BME280;72228;51.208;10.468;2023-11-21T02:44:09;98577.34;;;1.77;98.08
82562;BME280;72228;51.208;10.468;2023-11-21T02:46:36;98570.78;;;1.78;98.62
82562;BME280;72228;51.208;10.468;2023-11-21T02:49:03;98575.69;;;1.71;97.96
82562;BME280;72228;51.208;10.468;2023-11-21T02:51:29;98584.41;;;1.68;98.66
82562;BME280;72228;51.208;10.468;2023-11-21T02:53:56;98572.94;;;1.66;98.68
82562;BME280;72228;51.208;10.468;2023-11-21T02:56:27;98572.38;;;1.64;98.67
82562;BME280;72228;51.208;10.468;2023-11-21T02:58:55;98573.19;;;1.59;98.72
82562;BME280;72228;51.208;10.468;2023-11-21T03:01:21;98580.03;;;1.61;98.40
82562;BME280;72228;51.208;10.468;2023-11-21T03:03:47;98564.44;;;1.62;98.56
82562;BME280;72228;51.208;10.468;2023-11-21T03:06:18;98569.13;;;1.67;98.39
82562;BME280;72228;51.208;10.468;2023-11-21T03:08:44;98566.41;;;1.72;98.49
82562;BME280;72228;51.208;10.468;2023-11-21T03:11:10;98561.78;;;1.77;98.31
82562;BME280;72228;51.208;10.468;2023-11-21T03:13:35;98569.13;;;1.67;98.56
82562;BME280;72228;51.208;10.468;2023-11-21T03:16:01;98570.19;;;1.60;98.57
82562;BME280;72228;51.208;10.468;2023-11-21T03:18:27;98579.44;;;1.49;98.64
82562;BME280;72228;51.208;10.468;2023-11-21T03:20:54;98577.03;;;1.58;98.36
82562;BME280;72228;51.208;10.468;2023-11-21T03:23:20;98577.22;;;1.41;98.71
82562;BME280;72228;51.208;10.468;2023-11-21T03:25:46;98582.13;;;1.34;98.79
82562;BME280;72228;51.208;10.468;2023-11-21T03:28:12;98584.31;;;1.37;98.42
82562;BME280;72228;51.208;10.468;2023-11-21T03:30:38;98578.88;;;1.42;98.66
82562;BME280;72228;51.208;10.468;2023-11-21T03:33:04;98575.59;;;1.40;98.46
82562;BME280;72228;51.208;10.468;2023-11-21T03:35:30;98580.50;;;1.43;98.61
82562;BME280;72228;51.208;10.468;2023-11-21T03:37:58;98589.25;;;1.40;98.31
82562;BME280;72228;51.208;10.468;2023-11-21T03:40:24;98590.31;;;1.34;98.65
82562;BME280;72228;51.208;10.468;2023-11-21T03:42:50;98596.28;;;1.26;99.06
82562;BME280;72228;51.208;10.468;2023-11-21T03:45:19;98601.72;;;1.26;98.87
82562;BME280;72228;51.208;10.468;2023-11-21T03:47:46;98599.78;;;1.21;98.83
82562;BME280;72228;51.208;10.468;2023-11-21T03:50:12;98589.72;;;1.22;98.55
82562;BME280;72228;51.208;10.468;2023-11-21T03:52:38;98603.34;;;1.17;98.29
82562;BME280;72228;51.208;10.468;2023-11-21T03:55:04;98599.00;;;1.26;98.71
82562;BME280;72228;51.208;10.468;2023-11-21T03:57:30;98602.75;;;1.10;98.64
82562;BME280;72228;51.208;10.468;2023-11-21T03:59:56;98600.03;;;1.10;98.57
82562;BME280;72228;51.208;10.468;2023-11-21T04:02:22;98605.44;;;0.99;98.63
82562;BME280;72228;51.208;10.468;2023-11-21T04:04:50;98613.06;;;0.97;98.65
82562;BME280;72228;51.208;10.468;2023-11-21T04:07:16;98618.53;;;0.97;99.12
82562;BME280;72228;51.208;10.468;2023-11-21T04:09:43;98610.03;;;0.94;98.81
82562;BME280;72228;51.208;10.468;2023-11-21T04:12:09;98607.03;;;0.95;98.92
82562;BME280;72228;51.208;10.468;2023-11-21T04:14:35;98612.44;;;0.85;98.75
82562;BME280;72228;51.208;10.468;2023-11-21T04:17:01;98611.59;;;0.79;98.92
82562;BME280;72228;51.208;10.468;2023-11-21T04:19:26;98619.50;;;0.81;98.67
82562;BME280;72228;51.208;10.468;2023-11-21T04:21:52;98617.81;;;0.75;98.31
82562;BME280;72228;51.208;10.468;2023-11-21T04:24:18;98614.56;;;0.78;99.00
82562;BME280;72228;51.208;10.468;2023-11-21T04:26:44;98616.69;;;0.71;98.68
82562;BME280;72228;51.208;10.468;2023-11-21T04:29:10;98612.59;;;0.68;98.93
82562;BME280;72228;51.208;10.468;2023-11-21T04:31:36;98606.84;;;0.65;98.43
82562;BME280;72228;51.208;10.468;2023-11-21T04:34:02;98616.16;;;0.69;98.53
82562;BME280;72228;51.208;10.468;2023-11-21T04:36:30;98617.47;;;0.61;99.01
82562;BME280;72228;51.208;10.468;2023-11-21T04:38:59;98622.06;;;0.61;98.84
82562;BME280;72228;51.208;10.468;2023-11-21T04:41:25;98619.31;;;0.56;98.77
82562;BME280;72228;51.208;10.468;2023-11-21T04:43:51;98623.16;;;0.60;98.78
82562;BME280;72228;51.208;10.468;2023-11-21T04:46:17;98627.53;;;0.61;98.75
82562;BME280;72228;51.208;10.468;2023-11-21T04:48:43;98630.84;;;0.63;99.36
82562;BME280;72228;51.208;10.468;2023-11-21T04:51:10;98625.84;;;0.54;98.91
82562;BME280;72228;51.208;10.468;2023-11-21T04:53:38;98626.94;;;0.53;98.83
82562;BME280;72228;51.208;10.468;2023-11-21T04:56:05;98625.38;;;0.63;98.94
82562;BME280;72228;51.208;10.468;2023-11-21T04:58:31;98631.00;;;0.88;99.41
82562;BME280;72228;51.208;10.468;2023-11-21T05:00:58;98634.25;;;0.80;98.93
82562;BME280;72228;51.208;10.468;2023-11-21T05:03:24;98633.59;;;0.68;98.96
82562;BME280;72228;51.208;10.468;2023-11-21T05:05:50;98628.56;;;0.54;98.73
82562;BME280;72228;51.208;10.468;2023-11-21T05:08:16;98640.50;;;0.48;99.17
82562;BME280;72228;51.208;10.468;2023-11-21T05:10:42;98645.84;;;0.65;99.10
82562;BME280;72228;51.208;10.468;2023-11-21T05:13:08;98648.38;;;0.77;99.49
82562;BME280;72228;51.208;10.468;2023-11-21T05:15:36;98648.34;;;0.67;99.45
82562;BME280;72228;51.208;10.468;2023-11-21T05:18:03;98656.16;;;0.58;98.76
82562;BME280;72228;51.208;10.468;2023-11-21T05:20:28;98665.38;;;0.52;98.99
82562;BME280;72228;51.208;10.468;2023-11-21T05:22:54;98662.06;;;0.45;99.31
82562;BME280;72228;51.208;10.468;2023-11-21T05:25:20;98664.94;;;0.33;99.46
82562;BME280;72228;51.208;10.468;2023-11-21T05:27:46;98658.34;;;0.29;99.57
82562;BME280;72228;51.208;10.468;2023-11-21T05:30:13;98661.13;;;0.34;99.43
82562;BME280;72228;51.208;10.468;2023-11-21T05:32:40;98669.25;;;0.29;99.39
82562;BME280;72228;51.208;10.468;2023-11-21T05:35:10;98670.38;;;0.33;99.45
82562;BME280;72228;51.208;10.468;2023-11-21T05:37:41;98676.97;;;0.37;98.75
82562;BME280;72228;51.208;10.468;2023-11-21T05:40:08;98679.56;;;0.49;99.08
82562;BME280;72228;51.208;10.468;2023-11-21T05:42:35;98676.84;;;0.54;98.93
82562;BME280;72228;51.208;10.468;2023-11-21T05:45:01;98676.28;;;0.84;99.47
82562;BME280;72228;51.208;10.468;2023-11-21T05:47:46;98687.34;;;0.72;99.42
82562;BME280;72228;51.208;10.468;2023-11-21T05:50:14;98688.66;;;0.65;99.43
82562;BME280;72228;51.208;10.468;2023-11-21T05:52:44;98691.34;;;0.60;99.25
82562;BME280;72228;51.208;10.468;2023-11-21T05:55:11;98693.53;;;0.58;99.43
82562;BME280;72228;51.208;10.468;2023-11-21T05:57:38;98694.22;;;0.75;99.14
82562;BME280;72228;51.208;10.468;2023-11-21T06:00:11;98699.50;;;0.87;99.61
82562;BME280;72228;51.208;10.468;2023-11-21T06:02:46;98705.78;;;0.87;99.24
82562;BME280;72228;51.208;10.468;2023-11-21T06:05:12;98703.66;;;0.94;99.33
82562;BME280;72228;51.208;10.468;2023-11-21T06:07:38;98717.56;;;0.93;100.00
82562;BME280;72228;51.208;10.468;2023-11-21T06:10:06;98706.94;;;0.96;99.82
82562;BME280;72228;51.208;10.468;2023-11-21T06:12:34;98710.69;;;0.90;99.76
82562;BME280;72228;51.208;10.468;2023-11-21T06:15:04;98728.75;;;0.91;99.37
82562;BME280;72228;51.208;10.468;2023-11-21T06:17:31;98714.84;;;0.93;99.46
82562;BME280;72228;51.208;10.468;2023-11-21T06:19:57;98719.50;;;0.97;99.90
82562;BME280;72228;51.208;10.468;2023-11-21T06:22:23;98718.53;;;1.14;99.71
82562;BME280;72228;51.208;10.468;2023-11-21T06:24:49;98721.59;;;1.22;99.48
82562;BME280;72228;51.208;10.468;2023-11-21T06:27:15;98726.25;;;1.27;99.71
82562;BME280;72228;51.208;10.468;2023-11-21T06:29:41;98722.19;;;1.29;100.00
82562;BME280;72228;51.208;10.468;2023-11-21T06:32:09;98729.84;;;1.32;99.72
82562;BME280;72228;51.208;10.468;2023-11-21T06:34:34;98727.41;;;1.36;100.00
82562;BME280;72228;51.208;10.468;2023-11-21T06:37:00;98740.28;;;1.41;99.61
82562;BME280;72228;51.208;10.468;2023-11-21T06:39:26;98737.31;;;1.47;99.88
82562;BME280;72228;51.208;10.468;2023-11-21T06:41:53;98736.84;;;1.60;100.00
82562;BME280;72228;51.208;10.468;2023-11-21T06:44:19;98737.97;;;1.70;100.00
82562;BME280;72228;51.208;10.468;2023-11-21T06:46:45;98737.53;;;1.83;99.78
82562;BME280;72228;51.208;10.468;2023-11-21T06:49:11;98742.44;;;1.86;99.80
82562;BME280;72228;51.208;10.468;2023-11-21T06:51:39;98739.44;;;1.87;99.58
82562;BME280;72228;51.208;10.468;2023-11-21T06:54:06;98740.84;;;1.90;99.70
82562;BME280;72228;51.208;10.468;2023-11-21T06:56:31;98746.03;;;1.92;99.68
82562;BME280;72228;51.208;10.468;2023-11-21T06:58:58;98746.31;;;1.95;99.85
82562;BME280;72228;51.208;10.468;2023-11-21T07:01:24;98752.88;;;1.99;99.93
82562;BME280;72228;51.208;10.468;2023-11-21T07:03:50;98746.09;;;2.07;100.00
82562;BME280;72228;51.208;10.468;2023-11-21T07:06:16;98751.03;;;2.15;100.00
82562;BME280;72228;51.208;10.468;2023-11-21T07:08:42;98760.91;;;2.21;100.00
82562;BME280;72228;51.208;10.468;2023-11-21T07:11:08;98761.22;;;2.35;99.92
82562;BME280;72228;51.208;10.468;2023-11-21T07:13:34;98757.97;;;2.48;100.00
82562;BME280;72228;51.208;10.468;2023-11-21T07:16:00;98762.13;;;2.61;100.00
82562;BME280;72228;51.208;10.468;2023-11-21T07:18:26;98758.03;;;2.74;100.00
82562;BME280;72228;51.208;10.468;2023-11-21T07:20:52;98760.53;;;2.85;100.00
82562;BME280;72228;51.208;10.468;2023-11-21T07:23:17;98759.16;;;2.98;100.00
82562;BME280;72228;51.208;10.468;2023-11-21T07:25:43;98774.75;;;3.03;99.93
82562;BME280;72228;51.208;10.468;2023-11-21T07:28:28;98773.38;;;3.15;100.00
82562;BME280;72228;51.208;10.468;2023-11-21T07:30:55;98782.44;;;3.26;99.96
82562;BME280;72228;51.208;10.468;2023-11-21T07:33:39;98783.25;;;3.27;100.00
82562;BME280;72228;51.208;10.468;2023-11-21T07:36:06;98796.41;;;3.40;99.93
82562;BME280;72228;51.208;10.468;2023-11-21T07:38:32;98792.84;;;3.49;100.00
82562;BME280;72228;51.208;10.468;2023-11-21T07:40:59;98806.53;;;3.44;100.00
82562;BME280;72228;51.208;10.468;2023-11-21T07:43:27;98799.13;;;3.50;100.00
82562;BME280;72228;51.208;10.468;2023-11-21T07:45:55;98802.69;;;3.61;100.00
82562;BME280;72228;51.208;10.468;2023-11-21T07:48:21;98806.25;;;3.61;100.00
82562;BME280;72228;51.208;10.468;2023-11-21T07:50:47;98813.38;;;3.72;99.74
82562;BME280;72228;51.208;10.468;2023-11-21T07:53:13;98807.31;;;3.75;100.00
82562;BME280;72228;51.208;10.468;2023-11-21T07:55:40;98813.91;;;3.80;99.90
82562;BME280;72228;51.208;10.468;2023-11-21T07:58:05;98811.69;;;3.87;99.67
82562;BME280;72228;51.208;10.468;2023-11-21T08:00:31;98819.38;;;3.90;99.77
82562;BME280;72228;51.208;10.468;2023-11-21T08:02:57;98816.34;;;4.01;99.89
82562;BME280;72228;51.208;10.468;2023-11-21T08:05:23;98821.00;;;4.01;99.60
82562;BME280;72228;51.208;10.468;2023-11-21T08:07:49;98829.19;;;4.16;99.96
82562;BME280;72228;51.208;10.468;2023-11-21T08:10:15;98813.00;;;4.20;99.43
82562;BME280;72228;51.208;10.468;2023-11-21T08:12:41;98825.06;;;4.14;99.04
82562;BME280;72228;51.208;10.468;2023-11-21T08:15:08;98827.25;;;4.22;99.78
82562;BME280;72228;51.208;10.468;2023-11-21T08:17:36;98825.00;;;4.34;99.87
82562;BME280;72228;51.208;10.468;2023-11-21T08:20:01;98819.22;;;4.41;99.17
82562;BME280;72228;51.208;10.468;2023-11-21T08:22:28;98827.94;;;4.48;99.32
82562;BME280;72228;51.208;10.468;2023-11-21T08:24:55;98826.31;;;4.52;99.33
82562;BME280;72228;51.208;10.468;2023-11-21T08:27:21;98838.84;;;4.73;99.50
82562;BME280;72228;51.208;10.468;2023-11-21T08:29:47;98834.03;;;4.94;99.57
82562;BME280;72228;51.208;10.468;2023-11-21T08:32:12;98839.25;;;4.96;99.18
82562;BME280;72228;51.208;10.468;2023-11-21T08:34:38;98835.38;;;5.02;98.46
82562;BME280;72228;51.208;10.468;2023-11-21T08:37:05;98843.53;;;5.17;97.86
82562;BME280;72228;51.208;10.468;2023-11-21T08:39:31;98841.78;;;5.26;97.41
82562;BME280;72228;51.208;10.468;2023-11-21T08:41:57;98839.16;;;5.45;97.32
82562;BME280;72228;51.208;10.468;2023-11-21T08:44:23;98853.63;;;5.61;97.74
82562;BME280;72228;51.208;10.468;2023-11-21T08:46:49;98840.41;;;5.63;96.37
82562;BME280;72228;51.208;10.468;2023-11-21T08:49:15;98845.56;;;5.70;95.93
82562;BME280;72228;51.208;10.468;2023-11-21T08:51:41;98849.09;;;5.75;95.34
82562;BME280;72228;51.208;10.468;2023-11-21T08:54:07;98853.47;;;5.76;94.36
82562;BME280;72228;51.208;10.468;2023-11-21T08:56:37;98845.75;;;5.83;93.99
82562;BME280;72228;51.208;10.468;2023-11-21T08:59:03;98852.59;;;5.86;93.07
82562;BME280;72228;51.208;10.468;2023-11-21T09:01:29;98856.13;;;5.91;93.77
82562;BME280;72228;51.208;10.468;2023-11-21T09:03:57;98853.56;;;6.00;93.62
82562;BME280;72228;51.208;10.468;2023-11-21T09:06:24;98859.63;;;6.02;92.89
82562;BME280;72228;51.208;10.468;2023-11-21T09:08:50;98861.97;;;6.14;93.03
82562;BME280;72228;51.208;10.468;2023-11-21T09:11:16;98867.72;;;6.17;92.68
82562;BME280;72228;51.208;10.468;2023-11-21T09:13:42;98869.03;;;6.25;91.69
82562;BME280;72228;51.208;10.468;2023-11-21T09:16:08;98873.94;;;6.28;91.65
82562;BME280;72228;51.208;10.468;2023-11-21T09:18:34;98865.63;;;6.33;90.92
82562;BME280;72228;51.208;10.468;2023-11-21T09:21:00;98869.97;;;6.39;90.90
82562;BME280;72228;51.208;10.468;2023-11-21T09:23:26;98876.53;;;6.43;90.59
82562;BME280;72228;51.208;10.468;2023-11-21T09:25:52;98877.56;;;6.48;90.61
82562;BME280;72228;51.208;10.468;2023-11-21T09:28:22;98878.69;;;6.47;90.64
82562;BME280;72228;51.208;10.468;2023-11-21T09:30:48;98884.97;;;6.52;89.99
82562;BME280;72228;51.208;10.468;2023-11-21T09:33:15;98891.59;;;6.51;89.51
82562;BME280;72228;51.208;10.468;2023-11-21T09:35:41;98897.63;;;6.53;89.31
82562;BME280;72228;51.208;10.468;2023-11-21T09:38:09;98893.75;;;6.54;89.18
82562;BME280;72228;51.208;10.468;2023-11-21T09:40:37;98898.06;;;6.60;89.93
82562;BME280;72228;51.208;10.468;2023-11-21T09:43:08;98895.56;;;6.64;89.15
82562;BME280;72228;51.208;10.468;2023-11-21T09:45:44;98896.09;;;6.66;88.91
82562;BME280;72228;51.208;10.468;2023-11-21T09:48:11;98904.91;;;6.68;88.68
82562;BME280;72228;51.208;10.468;2023-11-21T09:50:37;98906.06;;;6.62;88.36
82562;BME280;72228;51.208;10.468;2023-11-21T09:53:08;98904.94;;;6.63;88.19
82562;BME280;72228;51.208;10.468;2023-11-21T09:55:37;98906.88;;;6.62;88.91
82562;BME280;72228;51.208;10.468;2023-11-21T09:58:04;98900.78;;;6.65;88.65
82562;BME280;72228;51.208;10.468;2023-11-21T10:00:33;98908.75;;;6.67;88.91
82562;BME280;72228;51.208;10.468;2023-11-21T10:02:59;98907.34;;;6.69;89.04
82562;BME280;72228;51.208;10.468;2023-11-21T10:05:25;98909.81;;;6.71;88.57
82562;BME280;72228;51.208;10.468;2023-11-21T10:07:52;98907.28;;;6.75;89.49
82562;BME280;72228;51.208;10.468;2023-11-21T10:10:19;98907.50;;;6.78;89.72
82562;BME280;72228;51.208;10.468;2023-11-21T10:12:50;98914.91;;;6.83;89.50
82562;BME280;72228;51.208;10.468;2023-11-21T10:15:21;98910.16;;;6.88;89.17
82562;BME280;72228;51.208;10.468;2023-11-21T10:17:49;98916.78;;;6.87;89.26
82562;BME280;72228;51.208;10.468;2023-11-21T10:20:16;98914.66;;;6.79;89.17
82562;BME280;72228;51.208;10.468;2023-11-21T10:22:43;98916.31;;;6.80;89.54
82562;BME280;72228;51.208;10.468;2023-11-21T10:25:10;98908.63;;;6.77;89.57
82562;BME280;72228;51.208;10.468;2023-11-21T10:27:39;98909.38;;;6.83;89.81
82562;BME280;72228;51.208;10.468;2023-11-21T10:30:06;98915.19;;;6.81;89.96
82562;BME280;72228;51.208;10.468;2023-11-21T10:32:32;98915.19;;;6.81;90.27
82562;BME280;72228;51.208;10.468;2023-11-21T10:34:59;98915.19;;;6.81;89.68
82562;BME280;72228;51.208;10.468;2023-11-21T10:37:32;98920.09;;;6.84;90.11
82562;BME280;72228;51.208;10.468;2023-11-21T10:39:59;98918.34;;;6.93;90.49
82562;BME280;72228;51.208;10.468;2023-11-21T10:42:25;98921.06;;;6.98;90.39
82562;BME280;72228;51.208;10.468;2023-11-21T10:44:51;98919.69;;;6.96;90.21
82562;BME280;72228;51.208;10.468;2023-11-21T10:47:17;98913.88;;;6.97;90.16
82562;BME280;72228;51.208;10.468;2023-11-21T10:49:45;98916.88;;;7.01;90.57
82562;BME280;72228;51.208;10.468;2023-11-21T10:52:13;98919.94;;;6.99;90.32
82562;BME280;72228;51.208;10.468;2023-11-21T10:54:43;98924.47;;;7.09;90.11
82562;BME280;72228;51.208;10.468;2023-11-21T10:57:10;98929.22;;;7.04;89.79
82562;BME280;72228;51.208;10.468;2023-11-21T10:59:36;98935.75;;;7.13;89.63
82562;BME280;72228;51.208;10.468;2023-11-21T11:02:32;98930.28;;;7.08;89.84
82562;BME280;72228;51.208;10.468;2023-11-21T11:04:59;98930.91;;;7.05;89.67
82562;BME280;72228;51.208;10.468;2023-11-21T11:07:27;98934.16;;;7.07;89.39
82562;BME280;72228;51.208;10.468;2023-11-21T11:09:54;98937.44;;;7.09;89.09
82562;BME280;72228;51.208;10.468;2023-11-21T11:12:20;98933.56;;;7.10;88.75
82562;BME280;72228;51.208;10.468;2023-11-21T11:14:48;98941.03;;;7.09;89.48
82562;BME280;72228;51.208;10.468;2023-11-21T11:17:14;98937.44;;;7.09;89.34
82562;BME280;72228;51.208;10.468;2023-11-21T11:19:40;98947.91;;;7.12;89.57
82562;BME280;72228;51.208;10.468;2023-11-21T11:32:57;98956.22;;;7.07;89.61
82562;BME280;72228;51.208;10.468;2023-11-21T11:35:42;98954.81;;;7.09;89.27
82562;BME280;72228;51.208;10.468;2023-11-21T11:38:13;98952.28;;;7.13;88.93
82562;BME280;72228;51.208;10.468;2023-11-21T11:40:52;98956.47;;;7.10;89.26
82562;BME280;72228;51.208;10.468;2023-11-21T11:43:27;98949.47;;;7.18;88.98
82562;BME280;72228;51.208;10.468;2023-11-21T11:46:02;98954.97;;;7.18;89.03
82562;BME280;72228;51.208;10.468;2023-11-21T11:48:29;98950.53;;;7.22;89.13
82562;BME280;72228;51.208;10.468;2023-11-21T11:51:12;98951.03;;;7.24;88.65
82562;BME280;72228;51.208;10.468;2023-11-21T11:53:46;98956.03;;;7.22;88.43
82562;BME280;72228;51.208;10.468;2023-11-21T11:56:23;98956.25;;;7.25;88.62
82562;BME280;72228;51.208;10.468;2023-11-21T11:58:55;98961.47;;;7.27;88.33
82562;BME280;72228;51.208;10.468;2023-11-21T12:01:21;98957.63;;;7.28;88.75
82562;BME280;72228;51.208;10.468;2023-11-21T12:06:52;98966.63;;;7.34;88.54
82562;BME280;72228;51.208;10.468;2023-11-21T12:09:23;98968.56;;;7.33;88.62
82562;BME280;72228;51.208;10.468;2023-11-21T12:11:49;98967.66;;;7.38;88.63
82562;BME280;72228;51.208;10.468;2023-11-21T12:14:16;98968.66;;;7.28;88.74
82562;BME280;72228;51.208;10.468;2023-11-21T12:16:43;98969.16;;;7.30;89.18
82562;BME280;72228;51.208;10.468;2023-11-21T12:19:10;98970.03;;;7.25;88.89
82562;BME280;72228;51.208;10.468;2023-11-21T12:21:36;98977.81;;;7.23;89.29
82562;BME280;72228;51.208;10.468;2023-11-21T12:24:03;98976.75;;;7.19;89.00
82562;BME280;72228;51.208;10.468;2023-11-21T12:26:29;98982.25;;;7.19;89.23
82562;BME280;72228;51.208;10.468;2023-11-21T12:28:55;98986.69;;;7.15;89.57
82562;BME280;72228;51.208;10.468;2023-11-21T12:31:22;98983.44;;;7.13;89.54
82562;BME280;72228;51.208;10.468;2023-11-21T12:33:48;98992.00;;;7.12;89.61
82562;BME280;72228;51.208;10.468;2023-11-21T12:36:14;98991.44;;;7.10;89.54
82562;BME280;72228;51.208;10.468;2023-11-21T12:38:40;99000.84;;;7.09;89.79
82562;BME280;72228;51.208;10.468;2023-11-21T12:41:08;98999.50;;;7.06;89.61
82562;BME280;72228;51.208;10.468;2023-11-21T12:43:36;99001.44;;;7.06;90.21
82562;BME280;72228;51.208;10.468;2023-11-21T12:46:06;99010.28;;;7.03;89.93
82562;BME280;72228;51.208;10.468;2023-11-21T12:48:33;98999.25;;;7.03;89.94
82562;BME280;72228;51.208;10.468;2023-11-21T12:50:59;98999.81;;;7.05;89.67
82562;BME280;72228;51.208;10.468;2023-11-21T12:53:26;99004.78;;;7.03;89.70
82562;BME280;72228;51.208;10.468;2023-11-21T12:55:51;99012.78;;;7.04;89.22
82562;BME280;72228;51.208;10.468;2023-11-21T12:58:23;99012.47;;;7.06;89.43
82562;BME280;72228;51.208;10.468;2023-11-21T13:00:51;99008.09;;;7.05;89.98
82562;BME280;72228;51.208;10.468;2023-11-21T13:03:19;99020.19;;;7.04;89.58
82562;BME280;72228;51.208;10.468;2023-11-21T13:05:51;99024.63;;;7.05;89.58
82562;BME280;72228;51.208;10.468;2023-11-21T13:08:21;99015.22;;;7.06;89.97
82562;BME280;72228;51.208;10.468;2023-11-21T13:10:53;99028.97;;;7.11;89.67
82562;BME280;72228;51.208;10.468;2023-11-21T13:13:20;99027.28;;;7.10;89.39
82562;BME280;72228;51.208;10.468;2023-11-21T13:15:51;99036.69;;;7.09;89.65